Time;durP1;ratioP1;P1;durP2;ratioP2;P2;SDS_P1;SDS_P2;PMS_P1;PMS_P2;Temp;Humidity;BMP_temperature;BMP_pressure;BME280_temperature;BME280_humidity;BME280_pressure;Samples;Min_cycle;Max_cycle;Signal;HPM_P1;HPM_P2
2023/12/25 00:02:25;;;;;;;3.60;2.50;;;;;;;8.00;100.00;98341.10;134178;1300;23248;-77
2023/12/25 00:05:29;;;;;;;3.20;2.00;;;;;;;8.03;100.00;98346.81;134192;1301;23134;-77
2023/12/25 00:09:11;;;;;;;2.60;1.70;;;;;;;8.08;100.00;98346.23;134233;1303;22447;-77
2023/12/25 00:12:12;;;;;;;2.80;2.00;;;;;;;8.25;100.00;98357.17;134244;1298;22465;-77
2023/12/25 00:15:16;;;;;;;4.00;2.00;;;;;;;8.33;100.00;98359.79;134273;1292;22436;-77
2023/12/25 00:18:17;;;;;;;;;;;;;;;8.40;100.00;98354.59;134270;1298;22458;-77
2023/12/25 00:21:51;;;;;;;;;;;;;;;;;;;;;
2023/12/25 00:25:04;;;;;;;2.10;1.20;;;;;;;8.61;100.00;98350.68;134272;1298;23134;-77
2023/12/25 00:28:05;;;;;;;1.20;1.10;;;;;;;8.72;100.00;98345.55;134281;1298;22434;-77
2023/12/25 00:31:09;;;;;;;1.70;0.70;;;;;;;8.97;100.00;98341.52;134100;1298;22407;-77
2023/12/25 00:34:10;;;;;;;0.90;0.90;;;;;;;9.19;100.00;98340.43;134259;1298;23732;-77
2023/12/25 00:37:11;;;;;;;0.70;0.60;;;;;;;9.41;100.00;98347.41;134285;1304;23122;-77
2023/12/25 00:40:11;;;;;;;0.90;0.80;;;;;;;9.57;100.00;98344.30;134297;1298;22359;-77
2023/12/25 00:43:12;;;;;;;;;;;;;;;9.68;100.00;98341.79;134298;1298;22499;-77
2023/12/25 00:46:13;;;;;;;0.70;0.60;;;;;;;9.80;100.00;98342.64;134276;1304;22375;-77
2023/12/25 00:49:15;;;;;;;0.90;0.70;;;;;;;9.92;100.00;98342.42;134277;1298;22415;-77
2023/12/25 00:52:35;;;;;;;1.20;0.80;;;;;;;10.02;100.00;98337.06;134274;1298;22339;-77
2023/12/25 00:59:29;;;;;;;1.00;0.90;;;;;;;10.17;99.93;98338.71;134285;1298;22310;-77
2023/12/25 01:02:33;;;;;;;1.10;0.70;;;;;;;10.23;98.84;98333.73;134259;1298;23133;-77
2023/12/25 01:05:33;;;;;;;0.70;0.70;;;;;;;10.27;98.27;98331.36;134292;1300;22490;-77
2023/12/25 01:08:34;;;;;;;0.50;0.50;;;;;;;10.29;97.56;98339.35;134266;1304;22233;-77
2023/12/25 01:11:43;;;;;;;;;;;;;;;10.34;97.14;98343.75;134301;1304;22418;-77
2023/12/25 01:14:44;;;;;;;2.10;0.90;;;;;;;10.32;96.71;98340.90;134303;1304;23018;-77
2023/12/25 01:17:45;;;;;;;0.50;0.50;;;;;;;10.32;96.39;98349.42;134287;1304;23319;-77
2023/12/25 01:21:16;;;;;;;1.60;0.70;;;;;;;10.34;95.62;98346.15;134117;1305;22511;-77
2023/12/25 01:24:39;;;;;;;0.70;0.60;;;;;;;10.41;94.75;98339.90;134021;1304;22076;-76
2023/12/25 01:27:43;;;;;;;0.60;0.60;;;;;;;10.44;94.32;98331.70;134263;1304;22422;-76
2023/12/25 01:30:47;;;;;;;0.90;0.70;;;;;;;10.47;93.80;98337.67;134231;1298;23210;-77
2023/12/25 01:33:48;;;;;;;1.10;0.80;;;;;;;10.47;94.11;98339.84;134265;1303;22782;-76
2023/12/25 01:36:58;;;;;;;3.00;0.70;;;;;;;10.44;93.26;98341.84;134312;1298;22396;-77
2023/12/25 01:39:59;;;;;;;1.00;0.70;;;;;;;10.45;93.19;98350.86;134273;1304;22460;-77
2023/12/25 01:43:22;;;;;;;0.50;0.50;;;;;;;10.47;92.55;98352.33;134279;1304;23027;-77
2023/12/25 01:46:23;;;;;;;0.50;0.50;;;;;;;10.49;92.40;98352.48;134259;1303;22384;-77
2023/12/25 01:50:05;;;;;;;;;;;;;;;;;;;;;
2023/12/25 01:53:29;;;;;;;1.10;0.90;;;;;;;10.55;90.76;98362.17;134302;1300;22496;-77
2023/12/25 01:56:34;;;;;;;0.60;0.60;;;;;;;10.58;90.86;98370.15;134304;1305;22224;-77
2023/12/25 01:59:38;;;;;;;1.10;0.60;;;;;;;10.58;90.59;98373.58;134305;1300;22440;-76
2023/12/25 02:02:41;;;;;;;0.90;0.70;;;;;;;10.58;90.57;98381.33;134292;1297;22345;-77
2023/12/25 02:06:02;;;;;;;0.60;0.40;;;;;;;10.56;90.72;98386.89;134318;1298;22230;-77
2023/12/25 02:09:18;;;;;;;0.70;0.50;;;;;;;10.55;90.87;98401.30;134346;1304;23549;-77
2023/12/25 02:12:19;;;;;;;0.70;0.70;;;;;;;10.53;90.07;98406.64;134371;1304;22492;-77
2023/12/25 02:15:21;;;;;;;2.50;0.80;;;;;;;10.53;89.93;98415.33;134306;1297;22992;-76
2023/12/25 02:18:45;;;;;;;;;;;;;;;;;;;;;
2023/12/25 02:21:51;;;;;;;0.70;0.60;;;;;;;10.49;89.90;98425.98;134366;1302;22392;-76
2023/12/25 02:25:09;;;;;;;0.70;0.70;;;;;;;10.49;89.76;98433.90;134151;1304;23282;-77
2023/12/25 02:28:10;;;;;;;3.90;0.80;;;;;;;10.50;89.34;98429.70;134410;1301;23116;-76
2023/12/25 02:31:11;;;;;;;0.70;0.70;;;;;;;10.52;88.89;98428.11;134334;1301;23359;-77
2023/12/25 02:34:21;;;;;;;0.60;0.60;;;;;;;10.50;89.44;98441.94;134313;1298;23169;-76
2023/12/25 02:37:23;;;;;;;1.10;0.70;;;;;;;10.45;88.89;98440.48;134425;1297;22464;-76
2023/12/25 02:40:39;;;;;;;;;;;;;;;;;;;;;
2023/12/25 02:43:39;;;;;;;1.20;0.70;;;;;;;10.46;88.46;98443.54;134334;1298;22365;-77
2023/12/25 02:46:40;;;;;;;;;;;;;;;10.50;88.61;98455.77;134170;1304;22462;-77
2023/12/25 02:50:11;;;;;;;;;;;;;;;;;;;;;
2023/12/25 02:53:16;;;;;;;1.90;0.50;;;;;;;10.48;88.54;98449.61;134202;1304;22389;-76
2023/12/25 02:56:21;;;;;;;0.70;0.50;;;;;;;10.49;88.57;98448.10;134314;1304;22348;-77
2023/12/25 02:59:22;;;;;;;0.60;0.60;;;;;;;10.46;88.90;98458.52;134327;1298;22429;-76
2023/12/25 03:02:27;;;;;;;0.90;0.60;;;;;;;10.43;88.90;98461.83;134382;1304;22293;-77
2023/12/25 03:05:40;;;;;;;1.20;0.60;;;;;;;10.40;88.68;98460.60;134372;1298;22450;-76
2023/12/25 03:12:39;;;;;;;0.80;0.60;;;;;;;10.44;88.71;98483.92;134021;1298;22434;-76
2023/12/25 03:15:49;;;;;;;3.00;0.80;;;;;;;10.42;88.65;98503.06;134294;1304;22414;-77
2023/12/25 03:18:50;;;;;;;1.80;0.70;;;;;;;10.40;88.72;98511.54;134294;1298;22445;-76
2023/12/25 03:21:51;;;;;;;1.10;0.90;;;;;;;10.36;88.65;98513.06;134330;1298;23153;-76
2023/12/25 03:24:52;;;;;;;1.60;1.10;;;;;;;10.35;88.94;98513.30;134133;1299;23297;-76
2023/12/25 03:27:53;;;;;;;1.70;0.80;;;;;;;10.35;88.96;98522.20;134309;1298;23006;-76
2023/12/25 03:30:57;;;;;;;0.60;0.60;;;;;;;10.33;88.84;98529.58;134298;1301;22466;-76
2023/12/25 03:34:00;;;;;;;0.60;0.60;;;;;;;10.32;88.91;98526.79;134311;1297;22460;-76
2023/12/25 03:37:02;;;;;;;2.60;0.70;;;;;;;10.34;88.62;98517.26;134378;1298;22460;-76
2023/12/25 03:40:03;;;;;;;0.50;0.50;;;;;;;10.35;88.66;98536.64;134428;1301;22423;-77
2023/12/25 03:43:04;;;;;;;0.90;0.60;;;;;;;10.33;88.72;98534.23;134152;1298;22446;-78
2023/12/25 03:46:08;;;;;;;;;;;;;;;10.31;88.83;98544.98;134206;1304;22549;-76
2023/12/25 03:49:09;;;;;;;2.00;0.70;;;;;;;10.28;89.01;98547.67;134432;1304;22377;-76
2023/12/25 03:52:10;;;;;;;1.60;0.70;;;;;;;10.27;89.13;98545.23;134340;1304;22435;-76
2023/12/25 03:55:10;;;;;;;;;;;;;;;10.25;89.31;98538.40;134302;1304;23357;-76
2023/12/25 03:58:11;;;;;;;2.60;0.60;;;;;;;10.22;89.51;98530.48;134285;1298;22385;-76
2023/12/25 04:01:12;;;;;;;0.60;0.60;;;;;;;10.20;89.37;98527.91;134324;1304;22513;-76
2023/12/25 04:04:13;;;;;;;0.70;0.50;;;;;;;10.19;89.42;98537.00;134392;1298;22410;-76
2023/12/25 04:07:14;;;;;;;;;;;;;;;10.17;89.79;98539.12;134158;1304;22478;-77
2023/12/25 04:10:16;;;;;;;3.40;0.80;;;;;;;10.12;89.99;98541.63;133940;1305;22350;-76
2023/12/25 04:13:16;;;;;;;2.60;0.60;;;;;;;10.07;90.16;98532.83;134103;1291;22436;-76
2023/12/25 04:16:20;;;;;;;2.40;0.90;;;;;;;10.04;90.33;98534.16;134007;1301;22476;-76
2023/12/25 04:19:23;;;;;;;0.70;0.70;;;;;;;10.00;90.55;98538.31;133874;1304;23106;-76
2023/12/25 04:22:24;;;;;;;0.90;0.70;;;;;;;9.98;90.67;98542.89;133893;1301;22383;-76
2023/12/25 04:25:28;;;;;;;1.40;0.70;;;;;;;9.94;90.94;98547.78;133867;1305;22443;-76
2023/12/25 04:28:42;;;;;;;0.80;0.70;;;;;;;9.91;91.18;98550.53;134124;1305;22441;-77
2023/12/25 04:31:46;;;;;;;2.20;0.80;;;;;;;9.88;91.39;98538.30;134094;1305;22492;-76
2023/12/25 04:34:53;;;;;;;2.20;0.60;;;;;;;9.86;91.45;98545.30;133957;1304;23664;-76
2023/12/25 04:37:54;;;;;;;0.60;0.60;;;;;;;9.84;91.47;98537.03;134097;1297;23192;-76
2023/12/25 04:40:54;;;;;;;;;;;;;;;9.85;91.46;98523.42;134133;1305;22530;-77
2023/12/25 04:43:57;;;;;;;0.70;0.70;;;;;;;9.86;91.38;98524.73;134127;1304;23229;-76
2023/12/25 04:46:58;;;;;;;0.50;0.50;;;;;;;9.86;91.47;98529.33;134133;1305;22934;-76
2023/12/25 04:50:02;;;;;;;1.70;0.90;;;;;;;9.89;91.37;98537.54;133921;1305;23075;-76
2023/12/25 04:53:12;;;;;;;2.20;0.90;;;;;;;9.88;91.08;98545.02;133911;1304;22545;-76
2023/12/25 04:56:16;;;;;;;2.40;0.80;;;;;;;9.89;90.98;98540.66;133893;1305;22375;-76
2023/12/25 04:59:20;;;;;;;1.30;0.90;;;;;;;9.91;90.91;98545.53;134017;1301;22426;-76
2023/12/25 05:02:23;;;;;;;0.70;0.70;;;;;;;9.93;90.44;98539.38;133863;1301;22442;-76
2023/12/25 05:05:25;;;;;;;0.70;0.70;;;;;;;9.99;90.26;98539.33;134037;1305;22627;-77
2023/12/25 05:08:29;;;;;;;0.90;0.70;;;;;;;10.02;89.85;98539.17;134124;1304;22364;-76
2023/12/25 05:11:41;;;;;;;;;;;;;;;;;;;;;
2023/12/25 05:14:55;;;;;;;0.90;0.60;;;;;;;10.09;89.13;98561.48;134118;1305;22990;-76
2023/12/25 05:17:56;;;;;;;1.10;0.80;;;;;;;10.14;88.47;98562.60;134196;1304;23202;-76
2023/12/25 05:21:06;;;;;;;1.50;0.70;;;;;;;10.20;88.02;98560.77;134095;1294;142578;-76
2023/12/25 05:24:07;;;;;;;1.00;0.70;;;;;;;10.26;87.99;98561.08;134186;1299;22305;-76
2023/12/25 05:27:08;;;;;;;0.70;0.70;;;;;;;10.31;87.73;98564.70;133868;1294;23110;-76
2023/12/25 05:30:26;;;;;;;;;;;;;;;;;;;;;
2023/12/25 05:33:30;;;;;;;0.80;0.80;;;;;;;10.24;88.73;98584.06;134119;1305;22371;-76
2023/12/25 05:36:48;;;;;;;0.70;0.70;;;;;;;10.08;90.04;98605.52;134117;1303;22231;-76
2023/12/25 05:40:09;;;;;;;0.90;0.90;;;;;;;9.87;91.38;98605.91;134133;1305;22358;-76
2023/12/25 05:43:17;;;;;;;1.10;0.70;;;;;;;9.68;92.72;98602.70;134065;1298;22510;-77
2023/12/25 05:46:24;;;;;;;2.40;0.70;;;;;;;9.53;94.11;98602.23;134182;1304;22397;-77
2023/12/25 05:49:58;;;;;;;;;;;;;;;;;;;;;
2023/12/25 05:53:24;;;;;;;1.00;0.60;;;;;;;9.35;94.86;98587.11;134087;1298;22470;-77
2023/12/25 05:56:25;;;;;;;4.50;0.70;;;;;;;9.32;94.96;98583.18;134147;1298;22161;-77
2023/12/25 05:59:38;;;;;;;;;;;;;;;;;;;;;
2023/12/25 06:03:05;;;;;;;1.40;0.90;;;;;;;9.26;95.37;98595.17;134098;1298;22429;-77
2023/12/25 06:06:08;;;;;;;0.70;0.70;;;;;;;9.26;95.32;98599.13;134097;1298;22356;-76
2023/12/25 06:09:17;;;;;;;1.30;0.80;;;;;;;9.26;95.45;98595.91;134211;1297;23310;-77
2023/12/25 06:12:18;;;;;;;1.50;0.80;;;;;;;9.28;95.45;98596.16;134252;1298;23114;-77
2023/12/25 06:15:31;;;;;;;0.70;0.60;;;;;;;9.29;95.43;98590.36;134257;1304;22412;-76
2023/12/25 06:18:35;;;;;;;1.80;0.70;;;;;;;9.33;95.20;98575.91;134133;1304;22362;-77
2023/12/25 06:21:39;;;;;;;1.50;1.00;;;;;;;9.34;94.87;98576.89;134204;1297;22353;-76
2023/12/25 06:24:43;;;;;;;1.40;1.20;;;;;;;9.33;94.55;98574.52;134273;1304;22438;-77
2023/12/25 06:27:47;;;;;;;1.10;0.70;;;;;;;9.35;94.01;98563.30;134241;1298;22420;-76
2023/12/25 06:31:10;;;;;;;0.90;0.70;;;;;;;9.44;93.59;98564.89;134224;1291;22344;-77
2023/12/25 06:34:29;;;;;;;2.90;0.90;;;;;;;9.54;92.88;98561.59;134214;1298;23320;-77
2023/12/25 06:37:30;;;;;;;1.30;0.90;;;;;;;9.59;92.45;98565.51;134261;1304;22376;-77
2023/12/25 06:40:36;;;;;;;0.90;0.80;;;;;;;9.68;91.30;98572.48;134086;1288;22352;-77
2023/12/25 06:43:37;;;;;;;0.70;0.70;;;;;;;9.79;90.67;98571.05;134254;1305;22266;-76
2023/12/25 06:46:39;;;;;;;0.70;0.60;;;;;;;9.85;90.43;98590.64;134201;1298;22270;-77
2023/12/25 06:49:43;;;;;;;0.70;0.70;;;;;;;9.85;90.13;98593.04;134271;1298;22485;-76
2023/12/25 06:52:43;;;;;;;;;;;;;;;9.87;89.56;98591.61;134275;1301;22472;-77
2023/12/25 06:55:44;;;;;;;1.10;0.80;;;;;;;9.92;89.17;98592.11;134245;1304;22443;-77
2023/12/25 06:58:45;;;;;;;;;;;;;;;9.98;88.72;98587.92;134282;1304;22450;-75
2023/12/25 07:01:48;;;;;;;0.70;0.70;;;;;;;10.00;88.88;98598.90;134247;1298;22485;-75
2023/12/25 07:05:04;;;;;;;1.10;1.00;;;;;;;9.99;88.49;98591.23;134202;1298;22283;-75
2023/12/25 07:08:10;;;;;;;0.50;0.50;;;;;;;9.98;88.32;98587.05;134204;1304;23131;-75
2023/12/25 07:11:27;;;;;;;;;;;;;;;;;;;;;
2023/12/25 07:15:02;;;;;;;1.80;1.00;;;;;;;10.06;88.12;98595.33;134094;1298;22275;-76
2023/12/25 07:18:35;;;;;;;1.80;1.30;;;;;;;10.08;88.12;98604.59;134238;1298;22396;-76
2023/12/25 07:21:36;;;;;;;1.70;1.00;;;;;;;10.07;88.75;98618.49;134231;1298;22225;-76
2023/12/25 07:25:06;;;;;;;;;;;;;;;10.03;89.12;98620.96;134255;1298;22467;-76
2023/12/25 07:28:09;;;;;;;2.20;1.30;;;;;;;9.97;89.50;98626.66;134184;1298;23302;-76
2023/12/25 07:31:44;;;;;;;;;;;;;;;;;;;;;
2023/12/25 07:34:45;;;;;;;4.40;1.10;;;;;;;9.92;89.92;98621.66;134151;1297;23088;-76
2023/12/25 07:37:56;;;;;;;;;;;;;;;9.92;89.91;98614.45;134239;1298;22770;-76
2023/12/25 07:41:09;;;;;;;1.60;1.20;;;;;;;9.93;90.14;98614.73;134217;1301;22363;-76
2023/12/25 07:44:37;;;;;;;1.40;1.20;;;;;;;9.89;90.43;98620.31;134073;1298;22421;-76
2023/12/25 07:48:05;;;;;;;1.30;0.60;;;;;;;9.89;90.54;98629.52;134213;1299;22521;-78
2023/12/25 07:51:09;;;;;;;;;;;;;;;9.92;90.88;98633.61;134229;1298;23690;-77
2023/12/25 07:54:17;;;;;;;1.50;0.80;;;;;;;9.89;91.09;98635.15;134177;1298;22438;-76
2023/12/25 07:57:20;;;;;;;2.30;0.70;;;;;;;9.87;91.21;98640.96;134199;1304;23041;-76
2023/12/25 08:00:21;;;;;;;1.80;1.50;;;;;;;9.87;91.04;98643.00;134232;1298;22387;-76
2023/12/25 08:03:51;;;;;;;1.20;1.10;;;;;;;9.86;91.15;98643.63;134154;1298;22465;-76
2023/12/25 08:06:52;;;;;;;3.70;1.20;;;;;;;9.89;91.18;98648.55;134105;1298;22477;-77
2023/12/25 08:09:53;;;;;;;0.90;0.80;;;;;;;9.94;91.05;98650.98;134161;1298;22462;-78
2023/12/25 08:13:21;;;;;;;1.30;0.90;;;;;;;10.00;91.10;98651.41;134215;1298;22359;-75
2023/12/25 08:16:37;;;;;;;;;;;;;;;10.07;90.87;98650.09;134206;1304;22546;-78
2023/12/25 08:19:40;;;;;;;1.70;1.00;;;;;;;10.15;90.67;98664.13;134178;1298;22422;-76
2023/12/25 08:22:47;;;;;;;1.20;0.80;;;;;;;10.16;90.57;98675.42;134224;1298;22499;-75
2023/12/25 08:25:51;;;;;;;1.20;0.80;;;;;;;10.16;90.86;98686.31;134072;1301;22268;-75
2023/12/25 08:29:21;;;;;;;0.80;0.70;;;;;;;10.10;91.51;98683.34;134246;1298;22436;-76
2023/12/25 08:32:25;;;;;;;1.40;0.70;;;;;;;10.04;91.75;98688.11;134174;1298;22500;-75
2023/12/25 08:35:51;;;;;;;0.70;0.70;;;;;;;10.04;91.86;98691.17;134195;1298;22375;-76
2023/12/25 08:39:29;;;;;;;;;;;;;;;;;;;;;
2023/12/25 08:42:37;;;;;;;0.90;0.80;;;;;;;9.98;91.84;98712.42;134223;1304;22419;-75
2023/12/25 08:45:41;;;;;;;1.00;0.90;;;;;;;9.98;92.08;98710.42;134238;1298;22540;-75
2023/12/25 08:48:45;;;;;;;1.10;0.90;;;;;;;10.01;92.25;98697.89;134229;1300;22314;-75
2023/12/25 08:51:50;;;;;;;1.30;0.80;;;;;;;10.08;92.39;98691.35;134226;1298;22433;-76
2023/12/25 08:54:54;;;;;;;1.40;1.00;;;;;;;10.12;92.45;98709.02;134245;1298;22482;-76
2023/12/25 08:58:05;;;;;;;1.80;1.30;;;;;;;10.12;92.74;98709.55;134226;1297;22428;-76
2023/12/25 09:01:08;;;;;;;1.50;1.00;;;;;;;10.09;92.54;98719.45;134200;1296;23070;-76
2023/12/25 09:04:35;;;;;;;1.20;0.80;;;;;;;10.07;92.41;98720.49;134245;1298;22435;-77
2023/12/25 09:07:56;;;;;;;0.90;0.80;;;;;;;10.04;92.08;98716.58;134081;1289;22389;-75
2023/12/25 09:10:57;;;;;;;1.10;0.90;;;;;;;10.02;91.96;98727.52;134152;1298;22235;-76
2023/12/25 09:13:58;;;;;;;;;;;;;;;9.99;91.68;98730.45;134183;1304;22571;-75
2023/12/25 09:16:58;;;;;;;0.70;0.70;;;;;;;9.99;91.86;98734.24;134203;1298;22347;-77
2023/12/25 09:20:00;;;;;;;2.00;1.00;;;;;;;9.98;91.94;98741.90;134198;1298;23156;-74
2023/12/25 09:23:01;;;;;;;1.00;0.90;;;;;;;9.99;92.46;98746.47;134183;1297;22273;-75
2023/12/25 09:26:49;;;;;;;;;;;;;;;;;;;;;
2023/12/25 09:30:02;;;;;;;1.50;1.00;;;;;;;9.89;93.23;98759.27;134144;1299;23250;-75
2023/12/25 09:33:03;;;;;;;1.50;0.80;;;;;;;9.82;93.70;98768.70;134174;1298;22425;-76
2023/12/25 09:36:10;;;;;;;2.10;1.00;;;;;;;9.73;93.84;98767.52;134147;1298;22424;-75
2023/12/25 09:39:14;;;;;;;1.50;0.80;;;;;;;9.63;94.77;98770.70;134112;1298;22351;-76
2023/12/25 09:42:14;;;;;;;;;;;;;;;9.53;95.94;98762.12;134217;1299;22461;-74
2023/12/25 09:45:18;;;;;;;1.30;0.90;;;;;;;9.40;96.26;98765.41;134173;1303;22445;-75
2023/12/25 09:48:19;;;;;;;2.90;0.90;;;;;;;9.31;96.64;98775.31;134191;1298;22853;-76
2023/12/25 09:51:26;;;;;;;4.10;1.10;;;;;;;9.20;97.39;98779.79;133957;1299;22405;-77
2023/12/25 09:54:33;;;;;;;1.90;1.30;;;;;;;9.08;98.35;98787.52;134147;1304;22255;-76
2023/12/25 09:57:38;;;;;;;2.30;1.80;;;;;;;8.98;98.65;98784.23;134150;1301;23219;-77
2023/12/25 10:00:40;;;;;;;2.20;1.80;;;;;;;8.95;99.21;98792.21;134185;1298;23136;-78
2023/12/25 10:03:44;;;;;;;2.80;1.30;;;;;;;8.93;99.67;98794.06;134023;1298;22512;-78
2023/12/25 10:06:45;;;;;;;1.70;1.60;;;;;;;8.90;100.00;98802.52;134137;1298;22453;-78
2023/12/25 10:09:49;;;;;;;4.50;2.10;;;;;;;8.89;100.00;98803.88;134066;1304;22267;-76
2023/12/25 10:12:59;;;;;;;4.60;2.70;;;;;;;8.87;100.00;98809.02;134106;1298;23313;-75
2023/12/25 10:16:02;;;;;;;3.20;2.10;;;;;;;8.87;100.00;98814.63;134036;1303;22429;-76
2023/12/25 10:19:03;;;;;;;5.70;2.90;;;;;;;8.83;100.00;98814.02;134082;1298;22390;-76
2023/12/25 10:22:14;;;;;;;;;;;;;;;;;;;;;
2023/12/25 10:25:48;;;;;;;;;;;;;;;8.77;100.00;98811.77;134033;1298;22465;-76
2023/12/25 10:29:01;;;;;;;3.20;2.30;;;;;;;8.71;100.00;98807.65;133998;1298;22467;-77
2023/12/25 10:32:18;;;;;;;3.20;2.00;;;;;;;8.71;100.00;98805.99;134150;1299;22387;-75
2023/12/25 10:35:19;;;;;;;3.40;2.00;;;;;;;8.72;100.00;98801.09;134135;1299;22500;-77
2023/12/25 10:38:25;;;;;;;3.90;2.30;;;;;;;8.73;100.00;98802.16;134088;1298;22495;-76
2023/12/25 10:41:45;;;;;;;3.90;2.70;;;;;;;8.73;100.00;98807.42;134103;1301;22247;-75
2023/12/25 10:45:12;;;;;;;6.00;3.40;;;;;;;8.73;100.00;98813.23;133963;1298;22455;-78
2023/12/25 10:48:14;;;;;;;5.60;2.80;;;;;;;8.72;100.00;98802.23;134138;1298;22280;-76
2023/12/25 10:51:36;;;;;;;5.90;3.00;;;;;;;8.73;100.00;98805.71;134056;1298;22455;-76
2023/12/25 10:54:40;;;;;;;2.50;2.00;;;;;;;8.73;100.00;98815.21;134136;1300;23197;-77
2023/12/25 10:57:49;;;;;;;3.70;2.40;;;;;;;8.72;100.00;98841.02;134110;1299;22358;-76
2023/12/25 11:04:32;;;;;;;2.20;1.90;;;;;;;8.79;100.00;98789.48;133901;1299;22379;-77
2023/12/25 11:07:39;;;;;;;3.20;1.90;;;;;;;8.82;100.00;98777.39;133882;1305;22490;-80
2023/12/25 11:11:04;;;;;;;5.40;1.90;;;;;;;8.87;100.00;98783.91;134191;1304;22500;-77
2023/12/25 11:14:12;;;;;;;6.30;1.90;;;;;;;8.92;100.00;98792.23;134197;1302;22372;-78
2023/12/25 11:17:56;;;;;;;2.40;1.80;;;;;;;9.09;100.00;98787.41;134111;1301;22378;-78
2023/12/25 11:21:28;;;;;;;4.50;2.30;;;;;;;9.38;100.00;98779.61;133946;1298;22388;-78
2023/12/25 11:24:38;;;;;;;2.80;2.00;;;;;;;9.64;100.00;98782.21;134083;1302;22387;-78
2023/12/25 11:27:50;;;;;;;3.30;2.40;;;;;;;9.87;100.00;98789.95;134169;1300;22412;-78
2023/12/25 11:30:55;;;;;;;2.30;1.80;;;;;;;10.02;100.00;98789.83;134084;1299;22395;-78
2023/12/25 11:34:53;;;;;;;;;;;;;;;;;;;;;
2023/12/25 11:39:01;;;;;;;3.60;1.40;;;;;;;10.21;100.00;98803.18;134208;1301;22337;-78
2023/12/25 11:42:00;;;;;;;2.20;1.30;;;;;;;10.37;100.00;98805.65;134131;1298;22256;-78
2023/12/25 11:45:09;;;;;;;4.40;2.20;;;;;;;10.48;99.92;98809.81;134209;1294;22469;-81
2023/12/25 11:49:11;;;;;;;2.80;1.70;;;;;;;10.48;99.48;98809.20;134225;1298;22396;-80
2023/12/25 11:52:14;;;;;;;3.70;1.60;;;;;;;10.37;98.37;98811.60;134021;1301;22436;-78
2023/12/25 11:55:23;;;;;;;2.30;1.70;;;;;;;10.28;97.66;98801.55;134188;1298;22279;-81
2023/12/25 11:58:23;;;;;;;4.00;1.50;;;;;;;10.21;97.64;98796.01;134111;1304;23166;-83
2023/12/25 12:01:24;;;;;;;;;;;;;;;10.17;97.72;98804.46;134203;1298;23156;-82
2023/12/25 12:04:25;;;;;;;3.60;1.50;;;;;;;10.13;97.08;98815.77;134205;1304;22354;-76
2023/12/25 12:07:31;;;;;;;1.80;1.40;;;;;;;10.10;96.64;98835.08;134199;1298;22442;-79
2023/12/25 12:10:32;;;;;;;2.20;1.70;;;;;;;10.07;96.59;98842.33;134213;1304;22380;-78
2023/12/25 12:13:33;;;;;;;3.80;1.70;;;;;;;10.05;96.40;98828.48;134187;1299;23194;-78
2023/12/25 12:16:34;;;;;;;3.30;2.40;;;;;;;10.05;95.51;98809.17;134204;1298;22545;-80
2023/12/25 12:19:35;;;;;;;7.20;4.20;;;;;;;10.08;94.43;98795.95;134240;1304;22387;-79
2023/12/25 12:22:36;;;;;;;3.80;2.60;;;;;;;10.08;94.07;98802.45;134224;1298;23065;-79
2023/12/25 12:25:36;;;;;;;2.60;1.70;;;;;;;10.05;94.16;98814.09;134221;1298;22241;-78
2023/12/25 12:28:37;;;;;;;2.40;1.50;;;;;;;10.01;93.80;98818.88;134226;1302;22239;-78
2023/12/25 12:31:39;;;;;;;;;;;;;;;10.00;93.45;98835.14;134237;1295;22572;-77
2023/12/25 12:34:55;;;;;;;2.70;1.60;;;;;;;9.98;92.68;98835.38;134176;1299;22234;-77
2023/12/25 12:38:01;;;;;;;2.40;2.00;;;;;;;9.96;92.86;98849.92;134039;1298;22362;-80
2023/12/25 12:41:05;;;;;;;2.80;1.60;;;;;;;9.93;92.92;98853.89;134198;1304;23084;-78
2023/12/25 12:44:05;;;;;;;;;;;;;;;9.88;92.58;98853.16;134206;1301;22438;-81
2023/12/25 12:47:09;;;;;;;2.10;1.40;;;;;;;9.85;92.34;98861.14;134168;1298;22379;-81
2023/12/25 12:50:22;;;;;;;2.50;1.40;;;;;;;9.83;92.00;98871.55;134233;1298;22377;-80
2023/12/25 12:53:23;;;;;;;3.30;1.60;;;;;;;9.80;91.58;98877.31;134248;1298;22436;-80
2023/12/25 12:56:44;;;;;;;3.40;1.40;;;;;;;9.79;91.68;98888.46;134216;1298;22239;-81
2023/12/25 13:00:44;;;;;;;3.10;1.70;;;;;;;9.74;91.41;98894.02;134251;1301;22256;-82
2023/12/25 13:04:19;;;;;;;;;;;;;;;;;;;;;
2023/12/25 13:07:23;;;;;;;2.70;1.60;;;;;;;9.57;91.19;98906.71;134213;1286;22348;-81
2023/12/25 13:10:33;;;;;;;2.60;1.80;;;;;;;9.51;91.32;98911.73;134195;1298;23237;-78
2023/12/25 13:13:34;;;;;;;3.10;1.80;;;;;;;9.47;91.48;98902.70;134236;1298;22365;-82
2023/12/25 13:16:34;;;;;;;;;;;;;;;9.48;91.68;98903.14;134286;1298;22461;-81
2023/12/25 13:19:35;;;;;;;3.80;2.00;;;;;;;9.46;91.94;98897.22;134112;1298;22305;-81
2023/12/25 13:22:37;;;;;;;5.20;2.30;;;;;;;9.43;92.07;98902.21;134259;1299;22297;-81
2023/12/25 13:25:41;;;;;;;3.10;1.80;;;;;;;9.41;92.16;98910.23;134226;1298;22424;-82
2023/12/25 13:28:41;;;;;;;6.30;3.10;;;;;;;9.42;92.51;98910.35;134260;1298;22435;-82
2023/12/25 13:31:42;;;;;;;7.00;2.50;;;;;;;9.41;92.63;98913.77;134221;1304;22394;-81
2023/12/25 13:34:43;;;;;;;10.50;4.70;;;;;;;9.42;92.62;98909.38;134267;1298;22388;-78
2023/12/25 13:37:44;;;;;;;;;;;;;;;9.44;92.78;98915.66;134247;1301;22543;-77
2023/12/25 13:40:55;;;;;;;3.40;2.20;;;;;;;9.44;92.88;98930.00;134251;1298;22454;-80
2023/12/25 13:43:56;;;;;;;;;;;;;;;9.48;92.76;98926.23;134209;1298;22652;-80
2023/12/25 13:47:05;;;;;;;4.70;2.70;;;;;;;9.49;92.75;98928.50;134249;1298;23038;-81
2023/12/25 13:50:18;;;;;;;5.40;2.60;;;;;;;9.52;92.60;98931.06;134239;1298;23189;-81
2023/12/25 13:53:23;;;;;;;5.50;2.60;;;;;;;9.53;92.16;98932.77;134220;1298;22459;-81
2023/12/25 13:56:33;;;;;;;7.70;3.10;;;;;;;9.55;92.13;98940.91;134006;1298;22371;-81
2023/12/25 13:59:36;;;;;;;5.90;2.30;;;;;;;9.55;92.19;98944.20;134255;1301;22395;-81
2023/12/25 14:02:46;;;;;;;4.10;2.30;;;;;;;9.54;92.16;98950.34;134223;1298;22377;-81
2023/12/25 14:05:50;;;;;;;4.30;2.30;;;;;;;9.53;92.17;98954.37;134235;1298;22213;-80
2023/12/25 14:08:56;;;;;;;;;;;;;;;9.51;92.00;98961.85;134250;1298;22501;-81
2023/12/25 14:12:11;;;;;;;6.20;3.60;;;;;;;9.49;91.96;98966.34;134201;1298;22378;-83
2023/12/25 14:15:16;;;;;;;6.40;2.70;;;;;;;9.48;92.01;98959.56;134217;1298;22487;-77
2023/12/25 14:18:31;;;;;;;4.10;2.80;;;;;;;9.48;92.00;98964.70;134067;1301;22372;-76
2023/12/25 14:22:04;;;;;;;5.60;2.70;;;;;;;9.45;91.70;98980.55;134258;1289;22277;-74
2023/12/25 14:25:05;;;;;;;5.00;2.60;;;;;;;9.43;91.67;98987.80;134203;1298;22262;-75
2023/12/25 14:28:09;;;;;;;6.50;3.60;;;;;;;9.41;91.71;98984.42;134243;1302;22336;-76
2023/12/25 14:31:09;;;;;;;3.00;2.10;;;;;;;9.38;91.45;98970.06;134202;1304;22497;-76
2023/12/25 14:34:10;;;;;;;;;;;;;;;9.35;91.36;98964.08;134231;1298;22448;-76
2023/12/25 14:37:22;;;;;;;5.00;2.50;;;;;;;9.33;91.28;98975.47;134225;1299;22434;-76
2023/12/25 14:40:23;;;;;;;4.30;2.10;;;;;;;9.31;91.53;98980.81;134239;1298;22384;-76
2023/12/25 14:43:32;;;;;;;3.80;1.90;;;;;;;9.28;91.27;98992.51;134241;1298;22642;-77
2023/12/25 14:46:49;;;;;;;2.50;1.70;;;;;;;9.26;91.26;99002.67;134212;1298;23198;-76
2023/12/25 14:49:50;;;;;;;2.40;1.60;;;;;;;9.24;91.26;99004.98;134226;1298;22397;-77
2023/12/25 14:53:04;;;;;;;;;;;;;;;;;;;;;
2023/12/25 14:56:26;;;;;;;4.60;1.70;;;;;;;9.22;91.27;99008.44;134205;1301;23059;-75
2023/12/25 14:59:32;;;;;;;2.40;1.60;;;;;;;9.21;91.25;99020.20;134222;1299;22914;-76
2023/12/25 15:02:36;;;;;;;4.00;1.90;;;;;;;9.19;91.16;99034.17;134255;1298;22363;-75
2023/12/25 15:05:39;;;;;;;4.80;1.90;;;;;;;9.15;90.92;99030.02;134228;1298;23359;-76
2023/12/25 15:08:48;;;;;;;4.50;1.90;;;;;;;9.12;90.74;99031.89;134222;1301;22215;-76
2023/12/25 15:11:49;;;;;;;3.10;1.50;;;;;;;9.08;90.59;99030.20;134185;1298;22327;-77
2023/12/25 15:14:52;;;;;;;3.40;1.90;;;;;;;9.05;90.73;99032.92;134235;1298;22367;-77
2023/12/25 15:17:53;;;;;;;;;;;;;;;9.04;90.85;99039.92;134258;1298;22461;-77
2023/12/25 15:20:54;;;;;;;2.30;1.50;;;;;;;9.02;90.70;99048.20;134260;1298;22455;-76
2023/12/25 15:23:56;;;;;;;3.40;1.60;;;;;;;9.01;90.74;99059.30;134201;1301;22460;-76
2023/12/25 15:26:57;;;;;;;3.80;2.00;;;;;;;9.00;90.60;99058.55;134245;1298;22447;-76
2023/12/25 15:30:01;;;;;;;6.80;2.00;;;;;;;8.98;90.74;99056.39;134236;1304;22433;-77